createdAt,value
2023-02-27T00:00:24.620Z,2.30
2023-02-27T00:02:51.968Z,2.30
2023-02-27T00:05:19.131Z,2.20
2023-02-27T00:07:45.838Z,2.30
2023-02-27T00:10:13.721Z,2.20
2023-02-27T00:12:40.535Z,2.30
2023-02-27T00:15:15.504Z,2.30
2023-02-27T00:17:42.444Z,2.30
2023-02-27T00:20:11.329Z,2.20
2023-02-27T00:22:38.951Z,2.20
2023-02-27T00:25:06.316Z,2.20
2023-02-27T00:27:33.192Z,2.20
2023-02-27T00:29:59.991Z,2.20
2023-02-27T00:32:26.833Z,2.10
2023-02-27T00:34:53.566Z,2.10
2023-02-27T00:37:20.302Z,2.10
2023-02-27T00:39:46.940Z,2.10
2023-02-27T00:42:13.601Z,2.10
2023-02-27T00:44:41.128Z,2.10
2023-02-27T00:47:07.988Z,2.10
2023-02-27T00:49:34.683Z,2.10
2023-02-27T00:52:01.368Z,2.10
2023-02-27T00:54:28.132Z,2.10
2023-02-27T00:56:54.829Z,2.10
2023-02-27T00:59:21.707Z,2.20
2023-02-27T01:01:48.412Z,2.00
2023-02-27T01:04:15.259Z,2.00
2023-02-27T01:06:41.954Z,2.00
2023-02-27T01:09:08.636Z,2.00
2023-02-27T01:11:35.349Z,2.00
2023-02-27T01:14:05.020Z,2.00
2023-02-27T01:16:31.841Z,2.00
2023-02-27T01:18:58.580Z,2.00
2023-02-27T01:21:25.714Z,2.00
2023-02-27T01:23:52.713Z,2.00
2023-02-27T01:26:19.490Z,2.00
2023-02-27T01:28:47.453Z,2.00
2023-02-27T01:31:14.292Z,2.00
2023-02-27T01:33:40.994Z,2.00
2023-02-27T01:36:08.125Z,2.00
2023-02-27T01:38:34.854Z,1.90
2023-02-27T01:41:01.593Z,1.90
2023-02-27T01:43:28.379Z,1.90
2023-02-27T01:45:55.526Z,1.90
2023-02-27T01:48:34.561Z,1.90
2023-02-27T01:51:06.893Z,1.80
2023-02-27T01:53:34.752Z,1.80
2023-02-27T01:56:07.988Z,1.80
2023-02-27T01:58:34.657Z,1.70
2023-02-27T02:01:01.403Z,1.70
2023-02-27T02:03:36.002Z,1.70
2023-02-27T02:06:03.313Z,1.60
2023-02-27T02:08:31.918Z,1.60
2023-02-27T02:10:58.674Z,1.60
2023-02-27T02:13:25.346Z,1.60
2023-02-27T02:16:02.254Z,1.50
2023-02-27T02:18:49.552Z,1.50
2023-02-27T02:21:45.301Z,1.50
2023-02-27T02:24:17.963Z,1.40
2023-02-27T02:26:56.084Z,1.30
2023-02-27T02:29:42.582Z,1.20
2023-02-27T02:32:33.039Z,1.10
2023-02-27T02:35:37.596Z,1.00
2023-02-27T02:38:42.120Z,0.90
2023-02-27T02:41:38.892Z,0.80
2023-02-27T02:44:19.062Z,0.80
2023-02-27T02:46:47.731Z,0.70
2023-02-27T02:49:28.931Z,0.70
2023-02-27T02:52:11.978Z,0.60
2023-02-27T02:54:45.989Z,0.60
2023-02-27T02:57:21.361Z,1.00
2023-02-27T02:59:52.818Z,0.50
2023-02-27T03:02:22.005Z,0.50
2023-02-27T03:04:53.802Z,0.50
2023-02-27T03:07:30.246Z,0.40
2023-02-27T03:10:12.638Z,0.40
2023-02-27T03:12:40.953Z,0.40
2023-02-27T03:15:20.112Z,0.40
2023-02-27T03:18:08.346Z,0.40
2023-02-27T03:20:41.283Z,0.30
2023-02-27T03:23:14.074Z,0.30
2023-02-27T03:25:40.777Z,0.30
2023-02-27T03:28:09.686Z,0.30
2023-02-27T03:30:45.353Z,0.30
2023-02-27T03:33:31.887Z,0.30
2023-02-27T03:36:37.637Z,0.20
2023-02-27T03:39:05.698Z,0.10
2023-02-27T03:41:36.549Z,0.00
2023-02-27T03:44:06.022Z,0.00
2023-02-27T03:46:32.948Z,0.00
2023-02-27T03:48:59.682Z,0.00
2023-02-27T03:51:28.627Z,0.00
2023-02-27T03:53:57.987Z,0.00
2023-02-27T03:56:29.565Z,-0.10
2023-02-27T03:58:56.218Z,-0.10
2023-02-27T04:01:22.947Z,-0.10
2023-02-27T04:03:53.918Z,-0.10
2023-02-27T04:06:39.133Z,-0.10
2023-02-27T04:09:31.375Z,-0.10
2023-02-27T04:12:44.287Z,-0.10
2023-02-27T04:15:49.588Z,-0.10
2023-02-27T04:18:25.071Z,-0.10
2023-02-27T04:21:06.564Z,-0.10
2023-02-27T04:24:00.243Z,-0.10
2023-02-27T04:26:58.734Z,-0.10
2023-02-27T04:29:28.372Z,-0.20
2023-02-27T04:32:06.349Z,-0.20
2023-02-27T04:34:42.376Z,-0.30
2023-02-27T04:37:16.436Z,-0.30
2023-02-27T04:39:54.156Z,-0.30
2023-02-27T04:42:24.153Z,-0.30
2023-02-27T04:44:50.840Z,-0.30
2023-02-27T04:47:17.932Z,-0.30
2023-02-27T04:49:51.201Z,-0.30
2023-02-27T04:52:28.458Z,-0.30
2023-02-27T04:54:59.534Z,-0.30
2023-02-27T04:57:32.599Z,-0.30
2023-02-27T04:59:59.346Z,-0.40
2023-02-27T05:02:29.148Z,-0.40
2023-02-27T05:04:57.821Z,-0.40
2023-02-27T05:07:36.404Z,-0.40
2023-02-27T05:10:08.306Z,-0.40
2023-02-27T05:12:51.712Z,-0.40
2023-02-27T05:15:28.164Z,-0.50
2023-02-27T05:18:09.046Z,-0.50
2023-02-27T05:21:02.022Z,-0.50
2023-02-27T05:23:36.751Z,-0.60
2023-02-27T05:26:17.510Z,-0.50
2023-02-27T05:28:52.215Z,-0.60
2023-02-27T05:31:24.746Z,-0.60
2023-02-27T05:33:58.960Z,-0.60
2023-02-27T05:36:30.840Z,-0.60
2023-02-27T05:38:59.594Z,-0.60
2023-02-27T05:41:29.116Z,-0.60
2023-02-27T05:44:20.648Z,-0.80
2023-02-27T05:46:52.145Z,-0.60
2023-02-27T05:49:38.480Z,-0.60
2023-02-27T05:52:06.080Z,-0.60
2023-02-27T05:54:44.848Z,-1.00
2023-02-27T05:57:14.477Z,-0.70
2023-02-27T05:59:46.466Z,-0.70
2023-02-27T06:02:13.114Z,-0.70
2023-02-27T06:04:40.860Z,-0.70
2023-02-27T06:07:08.670Z,-0.80
2023-02-27T06:09:35.421Z,-0.80
2023-02-27T06:12:02.243Z,-0.70
2023-02-27T06:14:28.948Z,-0.70
2023-02-27T06:16:55.753Z,-0.80
2023-02-27T06:19:22.574Z,-0.80
2023-02-27T06:21:49.890Z,-0.80
2023-02-27T06:24:16.627Z,-0.90
2023-02-27T06:26:43.329Z,-0.90
2023-02-27T06:29:10.112Z,-0.90
2023-02-27T06:31:36.785Z,-0.90
2023-02-27T06:34:03.454Z,-0.90
2023-02-27T06:36:30.557Z,-0.90
2023-02-27T06:38:58.110Z,-0.90
2023-02-27T06:41:25.094Z,-0.90
2023-02-27T06:43:52.027Z,-0.70
2023-02-27T06:46:19.090Z,-0.90
2023-02-27T06:48:45.822Z,-0.90
2023-02-27T06:51:12.488Z,-0.90
2023-02-27T06:53:39.176Z,-0.90
2023-02-27T06:56:06.292Z,-1.00
2023-02-27T06:58:32.959Z,-1.00
2023-02-27T07:01:00.978Z,-1.00
2023-02-27T07:03:27.650Z,-1.00
2023-02-27T07:05:54.317Z,-1.00
2023-02-27T07:08:21.036Z,-1.00
2023-02-27T07:10:49.055Z,-1.00
2023-02-27T07:13:19.293Z,-1.00
2023-02-27T07:15:46.672Z,-1.00
2023-02-27T07:18:13.417Z,-1.00
2023-02-27T07:20:40.286Z,-1.00
2023-02-27T07:23:07.052Z,-1.00
2023-02-27T07:25:33.796Z,-1.00
2023-02-27T07:28:00.452Z,-1.00
2023-02-27T07:30:27.185Z,-0.90
2023-02-27T07:32:53.989Z,-0.90
2023-02-27T07:35:20.703Z,-0.80
2023-02-27T07:37:47.693Z,-0.80
2023-02-27T07:40:14.864Z,-0.70
2023-02-27T07:42:41.591Z,-0.80
2023-02-27T07:45:09.717Z,-0.70
2023-02-27T07:47:36.527Z,-0.70
2023-02-27T07:50:04.942Z,-0.60
2023-02-27T07:52:31.830Z,-0.60
2023-02-27T07:54:58.568Z,-0.50
2023-02-27T07:57:25.465Z,-0.40
2023-02-27T07:59:52.172Z,-0.30
2023-02-27T08:02:19.115Z,-0.30
2023-02-27T08:04:45.883Z,-0.20
2023-02-27T08:07:12.630Z,-0.20
2023-02-27T08:09:39.397Z,-0.10
2023-02-27T08:12:06.361Z,-0.10
2023-02-27T08:14:33.057Z,0.00
2023-02-27T08:17:00.693Z,0.10
2023-02-27T08:19:27.429Z,0.20
2023-02-27T08:21:54.182Z,0.30
2023-02-27T08:24:20.908Z,0.40
2023-02-27T08:26:47.721Z,0.50
2023-02-27T08:29:16.846Z,0.50
2023-02-27T08:31:43.958Z,0.60
2023-02-27T08:34:11.028Z,0.70
2023-02-27T08:36:38.225Z,0.80
2023-02-27T08:39:05.863Z,0.70
2023-02-27T08:41:32.642Z,1.00
2023-02-27T08:43:59.380Z,1.20
2023-02-27T08:46:26.693Z,1.30
2023-02-27T08:48:54.741Z,1.50
2023-02-27T08:51:21.586Z,1.70
2023-02-27T08:53:48.303Z,1.90
2023-02-27T08:56:14.949Z,2.10
2023-02-27T08:58:41.683Z,2.30
2023-02-27T09:01:08.522Z,2.40
2023-02-27T09:03:35.233Z,2.60
2023-02-27T09:06:01.896Z,2.80
2023-02-27T09:08:28.913Z,2.90
2023-02-27T09:10:58.734Z,3.10
2023-02-27T09:13:26.745Z,3.10
2023-02-27T09:15:53.815Z,3.30
2023-02-27T09:18:20.577Z,3.30
2023-02-27T09:20:49.575Z,3.40
2023-02-27T09:23:16.344Z,3.50
2023-02-27T09:25:42.990Z,3.60
2023-02-27T09:28:09.633Z,3.70
2023-02-27T09:30:36.311Z,3.70
2023-02-27T09:33:02.976Z,3.80
2023-02-27T09:35:29.700Z,3.90
2023-02-27T09:37:57.737Z,4.10
2023-02-27T09:40:25.480Z,4.10
2023-02-27T09:42:53.085Z,4.30
2023-02-27T09:45:25.123Z,4.40
2023-02-27T09:47:58.259Z,4.50
2023-02-27T09:50:37.736Z,4.60
2023-02-27T09:53:15.311Z,4.70
2023-02-27T09:55:42.059Z,4.90
2023-02-27T09:58:43.893Z,5.00
2023-02-27T10:01:19.235Z,5.10
2023-02-27T10:04:27.305Z,5.20
2023-02-27T10:06:59.245Z,5.20
2023-02-27T10:09:52.113Z,5.40
2023-02-27T10:12:47.002Z,5.40
2023-02-27T10:15:33.472Z,5.50
2023-02-27T10:18:13.026Z,5.60
2023-02-27T10:21:10.622Z,5.70
2023-02-27T10:23:56.446Z,5.80
2023-02-27T10:26:26.480Z,5.90
2023-02-27T10:28:53.348Z,5.80
2023-02-27T10:31:26.143Z,5.80
2023-02-27T10:33:53.003Z,6.00
2023-02-27T10:36:32.565Z,6.20
2023-02-27T10:39:07.727Z,6.30
2023-02-27T10:41:36.071Z,6.40
2023-02-27T10:44:02.781Z,6.50
2023-02-27T10:46:31.280Z,6.40
2023-02-27T10:49:01.991Z,6.40
2023-02-27T10:51:31.295Z,6.50
2023-02-27T10:54:19.651Z,6.50
2023-02-27T10:56:48.962Z,6.50
2023-02-27T10:59:19.952Z,6.40
2023-02-27T11:01:54.701Z,6.40
2023-02-27T11:04:35.277Z,6.30
2023-02-27T11:07:04.762Z,6.30
2023-02-27T11:09:33.156Z,6.40
2023-02-27T11:12:29.277Z,6.60
2023-02-27T11:15:25.623Z,6.60
2023-02-27T11:17:53.238Z,6.70
2023-02-27T11:20:37.274Z,6.60
2023-02-27T11:23:13.022Z,6.70
2023-02-27T11:25:39.704Z,6.70
2023-02-27T11:28:22.875Z,6.70
2023-02-27T11:31:05.890Z,6.70
2023-02-27T11:33:40.585Z,6.90
2023-02-27T11:36:07.938Z,7.00
2023-02-27T11:38:34.829Z,7.00
2023-02-27T11:41:03.726Z,7.10
2023-02-27T11:43:40.127Z,7.10
2023-02-27T11:46:47.069Z,7.10
2023-02-27T11:49:18.369Z,7.10
2023-02-27T11:52:16.878Z,7.20
2023-02-27T11:54:45.785Z,7.30
2023-02-27T11:57:28.823Z,7.40
2023-02-27T12:00:20.376Z,7.60
2023-02-27T12:02:58.344Z,7.70
2023-02-27T12:05:29.170Z,7.60
2023-02-27T12:08:01.537Z,7.60
2023-02-27T12:10:30.074Z,7.60
2023-02-27T12:13:05.155Z,7.50
2023-02-27T12:15:47.664Z,7.50
2023-02-27T12:18:25.801Z,7.60
2023-02-27T12:20:54.761Z,7.60
2023-02-27T12:24:05.733Z,7.70
2023-02-27T12:26:37.349Z,7.70
2023-02-27T12:29:23.734Z,7.60
2023-02-27T12:31:51.689Z,7.50
2023-02-27T12:35:01.389Z,7.50
2023-02-27T12:37:28.890Z,7.40
2023-02-27T12:39:58.227Z,7.40
2023-02-27T12:42:25.279Z,7.40
2023-02-27T12:44:59.660Z,7.50
2023-02-27T12:47:44.207Z,7.60
2023-02-27T12:50:24.633Z,7.60
2023-02-27T12:53:13.061Z,7.80
2023-02-27T12:55:46.373Z,8.00
2023-02-27T12:58:35.604Z,8.10
2023-02-27T13:01:37.543Z,8.00
2023-02-27T13:04:27.200Z,8.00
2023-02-27T13:06:57.920Z,7.90
2023-02-27T13:09:35.056Z,7.90
2023-02-27T13:12:07.720Z,7.90
2023-02-27T13:14:47.662Z,7.90
2023-02-27T13:17:39.880Z,8.00
2023-02-27T13:20:21.570Z,8.00
2023-02-27T13:23:04.478Z,8.20
2023-02-27T13:25:31.265Z,8.30
2023-02-27T13:28:02.683Z,8.40
2023-02-27T13:30:38.315Z,8.40
2023-02-27T13:33:22.422Z,8.60
2023-02-27T13:35:58.080Z,8.60
2023-02-27T13:38:44.764Z,8.60
2023-02-27T13:41:20.478Z,8.60
2023-02-27T13:43:52.537Z,8.60
2023-02-27T13:46:29.188Z,8.70
2023-02-27T13:49:05.228Z,8.60
2023-02-27T13:51:50.994Z,8.60
2023-02-27T13:54:25.106Z,8.70
2023-02-27T13:56:54.588Z,8.80
2023-02-27T13:59:22.471Z,8.60
2023-02-27T14:02:14.464Z,8.50
2023-02-27T14:04:51.065Z,8.50
2023-02-27T14:07:23.584Z,8.50
2023-02-27T14:09:51.907Z,8.60
2023-02-27T14:12:44.306Z,8.60
2023-02-27T14:15:24.730Z,8.60
2023-02-27T14:18:11.441Z,8.50
2023-02-27T14:20:42.489Z,8.40
2023-02-27T14:23:20.592Z,8.40
2023-02-27T14:25:50.931Z,8.30
2023-02-27T14:28:30.700Z,8.20
2023-02-27T14:31:01.075Z,8.20
2023-02-27T14:33:54.044Z,8.30
2023-02-27T14:36:27.591Z,8.40
2023-02-27T14:38:59.118Z,8.40
2023-02-27T14:41:44.875Z,8.40
2023-02-27T14:44:22.504Z,8.30
2023-02-27T14:46:49.830Z,8.20
2023-02-27T14:49:18.639Z,8.20
2023-02-27T14:51:45.371Z,8.10
2023-02-27T14:54:20.363Z,8.10
2023-02-27T14:57:19.069Z,8.00
2023-02-27T14:59:50.462Z,7.90
2023-02-27T15:02:17.146Z,7.90
2023-02-27T15:04:43.866Z,7.90
2023-02-27T15:07:18.375Z,7.90
2023-02-27T15:09:47.906Z,8.20
2023-02-27T15:12:21.397Z,8.30
2023-02-27T15:14:54.266Z,8.40
2023-02-27T15:17:41.599Z,8.90
2023-02-27T15:20:34.050Z,9.10
2023-02-27T15:23:21.755Z,9.20
2023-02-27T15:25:48.517Z,9.00
2023-02-27T15:28:23.647Z,8.90
2023-02-27T15:30:51.035Z,8.60
2023-02-27T15:33:17.769Z,8.50
2023-02-27T15:35:45.318Z,8.40
2023-02-27T15:38:39.250Z,8.30
2023-02-27T15:41:06.014Z,8.30
2023-02-27T15:43:32.767Z,8.30
2023-02-27T15:45:59.545Z,8.20
2023-02-27T15:48:26.508Z,8.20
2023-02-27T15:51:01.088Z,8.20
2023-02-27T15:53:28.954Z,8.20
2023-02-27T15:55:56.487Z,8.10
2023-02-27T15:58:24.364Z,8.70
2023-02-27T16:01:00.362Z,9.70
2023-02-27T16:03:45.937Z,10.70
2023-02-27T16:06:16.868Z,11.30
2023-02-27T16:08:51.301Z,11.80
2023-02-27T16:11:19.774Z,11.80
2023-02-27T16:13:46.487Z,11.60
2023-02-27T16:16:22.196Z,10.90
2023-02-27T16:18:49.692Z,10.60
2023-02-27T16:21:20.345Z,10.10
2023-02-27T16:23:47.237Z,9.70
2023-02-27T16:26:13.880Z,9.40
2023-02-27T16:28:49.869Z,9.10
2023-02-27T16:31:33.662Z,8.80
2023-02-27T16:34:13.514Z,8.60
2023-02-27T16:36:51.943Z,8.40
2023-02-27T16:39:18.593Z,8.20
2023-02-27T16:41:45.412Z,8.20
2023-02-27T16:44:12.103Z,8.10
2023-02-27T16:46:38.909Z,8.00
2023-02-27T16:49:19.133Z,7.90
2023-02-27T16:51:46.428Z,7.80
2023-02-27T16:54:14.015Z,7.70
2023-02-27T16:56:41.266Z,7.60
2023-02-27T16:59:09.753Z,7.50
2023-02-27T17:01:36.709Z,7.40
2023-02-27T17:04:08.640Z,7.40
2023-02-27T17:06:40.226Z,7.40
2023-02-27T17:09:09.652Z,7.30
2023-02-27T17:11:36.458Z,7.20
2023-02-27T17:14:03.194Z,7.20
2023-02-27T17:16:30.359Z,7.10
2023-02-27T17:18:57.160Z,7.00
2023-02-27T17:21:23.871Z,6.90
2023-02-27T17:23:50.561Z,6.90
2023-02-27T17:26:17.225Z,6.90
2023-02-27T17:28:44.313Z,6.80
2023-02-27T17:31:15.239Z,6.80
2023-02-27T17:33:42.518Z,6.80
2023-02-27T17:36:10.131Z,6.70
2023-02-27T17:38:37.292Z,6.70
2023-02-27T17:41:08.094Z,6.70
2023-02-27T17:43:34.833Z,6.60
2023-02-27T17:46:01.684Z,6.60
2023-02-27T17:48:28.728Z,6.70
2023-02-27T17:50:58.539Z,6.60
2023-02-27T17:53:25.356Z,6.60
2023-02-27T17:55:52.044Z,6.60
2023-02-27T17:58:19.751Z,6.50
2023-02-27T18:00:46.530Z,6.50
2023-02-27T18:03:13.193Z,6.50
2023-02-27T18:05:39.921Z,6.40
2023-02-27T18:08:06.668Z,6.40
2023-02-27T18:10:33.327Z,6.40
2023-02-27T18:13:00.105Z,6.40
2023-02-27T18:15:27.068Z,6.40
2023-02-27T18:17:53.804Z,6.30
2023-02-27T18:20:20.493Z,6.20
2023-02-27T18:22:47.252Z,6.20
2023-02-27T18:25:15.853Z,6.10
2023-02-27T18:27:43.402Z,6.20
2023-02-27T18:30:10.741Z,6.00
2023-02-27T18:32:37.432Z,6.00
2023-02-27T18:35:04.561Z,5.90
2023-02-27T18:37:31.323Z,5.90
2023-02-27T18:39:58.169Z,5.90
2023-02-27T18:42:25.121Z,5.80
2023-02-27T18:44:51.849Z,5.80
2023-02-27T18:47:18.774Z,5.80
2023-02-27T18:49:46.043Z,5.80
2023-02-27T18:52:12.740Z,5.80
2023-02-27T18:54:40.844Z,5.80
2023-02-27T18:57:07.666Z,5.80
2023-02-27T18:59:36.612Z,5.80
2023-02-27T19:02:03.445Z,5.80
2023-02-27T19:04:32.844Z,5.80
2023-02-27T19:06:59.560Z,5.80
2023-02-27T19:09:32.608Z,5.80
2023-02-27T19:11:59.814Z,5.70
2023-02-27T19:14:26.595Z,5.60
2023-02-27T19:16:53.506Z,5.60
2023-02-27T19:19:20.273Z,5.60
2023-02-27T19:21:50.096Z,5.50
2023-02-27T19:24:16.804Z,5.50
2023-02-27T19:26:43.506Z,5.60
2023-02-27T19:29:10.278Z,5.40
2023-02-27T19:31:37.007Z,5.50
2023-02-27T19:34:03.822Z,5.40
2023-02-27T19:36:31.080Z,5.50
2023-02-27T19:38:58.233Z,5.50
2023-02-27T19:41:25.215Z,5.50
2023-02-27T19:43:52.113Z,5.50
2023-02-27T19:46:20.963Z,5.50
2023-02-27T19:48:47.860Z,5.50
2023-02-27T19:51:14.882Z,5.50
2023-02-27T19:53:45.286Z,5.50
2023-02-27T19:56:13.549Z,5.50
2023-02-27T19:58:40.464Z,5.50
2023-02-27T20:01:07.980Z,5.50
2023-02-27T20:03:35.352Z,5.50
2023-02-27T20:06:06.304Z,5.50
2023-02-27T20:08:34.152Z,5.50
2023-02-27T20:11:03.236Z,5.50
2023-02-27T20:13:30.010Z,5.50
2023-02-27T20:15:58.203Z,5.50
2023-02-27T20:18:24.966Z,5.50
2023-02-27T20:21:01.382Z,5.50
2023-02-27T20:23:28.189Z,5.50
2023-02-27T20:25:55.071Z,5.60
2023-02-27T20:28:22.400Z,5.60
2023-02-27T20:30:49.209Z,5.60
2023-02-27T20:33:16.006Z,5.60
2023-02-27T20:35:43.176Z,5.60
2023-02-27T20:38:10.109Z,5.60
2023-02-27T20:40:36.811Z,5.60
2023-02-27T20:43:04.107Z,5.60
2023-02-27T20:45:30.847Z,5.60
2023-02-27T20:47:57.506Z,5.60
2023-02-27T20:50:24.373Z,5.60
2023-02-27T20:52:54.085Z,5.60
2023-02-27T20:55:21.241Z,5.70
2023-02-27T20:57:47.936Z,6.00
2023-02-27T21:00:15.684Z,5.70
2023-02-27T21:02:42.404Z,5.60
2023-02-27T21:05:09.395Z,5.60
2023-02-27T21:07:36.275Z,5.70
2023-02-27T21:10:03.068Z,5.60
2023-02-27T21:12:29.980Z,5.60
2023-02-27T21:14:56.953Z,5.70
2023-02-27T21:17:26.245Z,5.60
2023-02-27T21:19:53.070Z,5.60
2023-02-27T21:22:19.945Z,5.60
2023-02-27T21:24:49.898Z,5.60
2023-02-27T21:27:19.760Z,5.60
2023-02-27T21:29:46.935Z,5.60
2023-02-27T21:32:13.707Z,5.60
2023-02-27T21:34:40.427Z,5.60
2023-02-27T21:37:08.880Z,5.60
2023-02-27T21:39:35.808Z,5.60
2023-02-27T21:42:03.430Z,5.60
2023-02-27T21:44:31.872Z,5.70
2023-02-27T21:46:59.850Z,5.70
2023-02-27T21:49:27.803Z,5.80
2023-02-27T21:51:54.984Z,5.60
2023-02-27T21:54:22.102Z,5.70
2023-02-27T21:56:50.768Z,5.70
2023-02-27T21:59:20.854Z,5.70
2023-02-27T22:01:48.237Z,5.60
2023-02-27T22:04:16.959Z,5.60
2023-02-27T22:06:44.454Z,5.60
2023-02-27T22:09:11.144Z,5.60
2023-02-27T22:11:40.713Z,5.50
2023-02-27T22:14:08.255Z,5.50
2023-02-27T22:16:35.046Z,5.40
2023-02-27T22:19:09.159Z,5.40
2023-02-27T22:21:38.900Z,5.40
2023-02-27T22:24:08.576Z,5.30
2023-02-27T22:26:35.349Z,5.20
2023-02-27T22:29:02.306Z,5.20
2023-02-27T22:31:33.668Z,5.20
2023-02-27T22:34:03.528Z,5.10
2023-02-27T22:36:31.230Z,5.10
2023-02-27T22:38:58.356Z,5.20
2023-02-27T22:41:30.420Z,5.00
2023-02-27T22:43:58.298Z,4.90
2023-02-27T22:46:30.614Z,4.80
2023-02-27T22:49:04.775Z,4.80
2023-02-27T22:51:31.749Z,4.80
2023-02-27T22:54:00.156Z,4.80
2023-02-27T22:56:27.128Z,4.80
2023-02-27T22:58:54.128Z,4.70
2023-02-27T23:01:22.435Z,4.70
2023-02-27T23:03:53.098Z,4.70
2023-02-27T23:06:31.254Z,4.60
2023-02-27T23:08:58.646Z,4.50
2023-02-27T23:11:25.438Z,4.50
2023-02-27T23:13:54.918Z,4.90
2023-02-27T23:16:21.763Z,4.40
2023-02-27T23:18:50.150Z,4.40
2023-02-27T23:21:18.227Z,4.30
2023-02-27T23:23:45.022Z,4.30
2023-02-27T23:26:11.949Z,4.20
2023-02-27T23:28:38.806Z,4.20
2023-02-27T23:31:06.271Z,4.10
2023-02-27T23:33:33.039Z,4.20
2023-02-27T23:36:00.844Z,4.10
2023-02-27T23:38:27.817Z,4.10
2023-02-27T23:40:54.610Z,4.10
2023-02-27T23:43:40.123Z,4.10
2023-02-27T23:46:08.320Z,4.00
2023-02-27T23:48:35.217Z,4.00
2023-02-27T23:51:03.264Z,3.90
2023-02-27T23:53:30.275Z,4.00
2023-02-27T23:55:56.992Z,3.90
2023-02-27T23:58:23.804Z,3.90
